Timeline UpdatesTrip UpdatesNews PostsPvt PostsTravel TipsAdmin PostsConv PostsFollowed PostsChat RequestsBlog PostsPNR Posts

Disclaimer
Search
 
 
Sun Apr 20, 2014 09:10:36 ISTHomeTrainsΣChainsAtlasPNRForumGalleryNewsFAQTripsMembersLoginFeedback
No Recent News for this Train
Other Trains in the News **new
Latest...
.
Sat Jul 30, 2011 (04:46AM)
⇐ Return Journey: Train# 57562

57561/Kacheguda Manmad Passenger (UnReserved)

Sep 11 2013 (10:15PM)
Change Departure Station:
Change Arrival Station:
Post a Train Travel TipPost a Train Travel Tip **new
Post a Comment/Question/Picture/VideoPost a Comment/Question/Picture/Video
Pantry/Catering
✕ NO Pantry Car
✓ Catering Avbl
RSA - Rake Sharing
Rake/Coach Composition
LOCO-SLR-GEN-GEN-GEN-GEN-GEN-GEN-GEN-GEN-GEN-GEN-GEN-GEN-SLR.
Loco
MLY WDM 2/3A or WDG 3A.
News    PNR    Forum    Time-Table    Availability    Fare Chart    Map    Arr/Dep History    Trips    Gallery    ΣChains    X/O    Timeline    
Travel Time: 7h 5m    16 halts    Distance: 194 km    Avg Speed: 27 km/hr
Type: Passenger
Zone: SCR/South Central
Departs @ 16:00 (Avg 1h 43m late)
Platform# ???
SMTWTFS
Kodi/KODI 
Arrives @ 23:05 (Avg 1h 44m late)
Platform# 6
SMTWTFS
Manmad Junction/MMR 

16 halts. 17 intermediate Stations between Kodi and Manmad Junction

Show ALL intermediate Stations  Show Old Time-Table

#CodeStation NameX/OArrivesAvgDepartsAvgHaltPFDay#KmSpeedElevZoneAddress
1KCGHyderabad Kacheguda (5)  -04:50+311-430.158494mSCRHyderabad - 500027, Andhra Pradesh
2VARVidya Nagar (2)  04:52+304:53+31m--1-428.244505mSCRHyderabad, Andhra Pradesh
3JOOJamai Osmania (2)  04:55+304:56+31m--1-426.837515mSCRHyderabad, Andhra Pradesh
4ATCArts College (2)X  04:57+704:58+71m--1-426.233521mSCRHyderabad, Andhra Pradesh
5STPDSitafalmandi (4)  05:00+705:01+61m21-425.180533mSCRSecunderabad, Andhra Pradesh
6LGDHLalaguda Gate (2)  05:03+1005:04+101m--1-422.44543mSCRSecunderabad, Andhra Pradesh
7MJFMalkajgiri (3)X  05:18+1005:19+101m31-421.427535mSCRSecunderabad, Andhra Pradesh
8DYEDayanand Nagar (2)  05:21+1005:22+101m--1-420.535537mSCRSecunderabad, Andhra Pradesh
9SFXSafilguda (2)X  05:23+1005:24+101m--1-420.034544mSCRSecunderabad, Andhra Pradesh
10RKORamakistapuram Gate (2)  05:27+1005:28+101m--1-418.233561mSCRSecunderabad, Andhra Pradesh
11AMQAmmuguda Halt (2)  05:30+1405:31+141m--1-417.183569mSCRSecunderabad, Andhra Pradesh
12CVBCavalry Barracks (3)  05:32+1405:33+141m31-415.824575mSCRSecunderabad, Andhra Pradesh
13ALWAlwal (2)  05:36+1405:37+141m--1-414.549580mSCRSecunderabad, Andhra Pradesh
14BOZBolarum Bazar (2)  05:39+1105:40+111m--1-412.912584mSCRSecunderabad, Andhra Pradesh
15BMOBolarum (3)X  05:48+1105:49+131m11-411.329597mSCRSecunderabad, Andhra Pradesh
16GDPLGundla Pochampally (1)X  06:00+1106:01+121m--1-405.977601mSCRRangareddy, Andhra Pradesh
17GWVGowdavalli (1)  06:05+1106:06+111m11-400.823601mSCRRangareddy, Andhra Pradesh
18MEDMedchal (3)  06:15+1106:16+151m21-397.479602mSCRRangareddy Dist., Andhra Pradesh
19DBVDabilpur (1)  06:19+1506:20+151m11-393.480611mSCRRangareddy Dist., Andhra Pradesh
20KUCHKuchavaram Halt (1)X  06:25+1406:26+141m11-386.820595mSCRRangareddy, Andhra Pradesh
21MOBManoharabad (2)  06:34+1406:35+201m--1-384.1-593mSCRMedak, Andhra Pradesh
22PAPMPalata Potaram (1)  06:39+2006:40+201m11-371.626522mSCRNational Highway 7, Andhra Pradesh
23BMPLBrahmanapalli (1)  06:44+1906:45+191m11-369.921528mSCRNational Highway 7, Andhra Pradesh
24MEMasaipet (2)  06:53+1906:54+211m--1-367.046520mSCRMedak, Andhra Pradesh
25SHANSrinivasa NagarX  06:58+2006:59+201m--1-363.932522mSCRRamanthapur, Andhra Pradesh
26WDRWadiaram (2)  07:08+2007:09+221m--1-359.266547mSCRTelangana Region, Andhra Pradesh
27MZLMirzapalli (1)  07:15+2507:16+281m11-352.629530mSCRMedak, Andhra Pradesh
28AKEAkanapetX  07:38+1807:39+221m--1-341.837566mSCR, Andhra Pradesh
29BKUBhiknur  07:49+2207:50+251m--1-335.761575mSCRNizamabad, Andhra Pradesh
30THPRTippapur (1)  07:54+2807:55+281m11-331.655549mSCRNational Highway 7, Andhra Pradesh
31TMDTalmadla  08:01+2808:02+291m--1-326.123559mSCRTelangana Region, Andhra Pradesh
32KMCKamareddi (3)  08:28+1708:30+182m11-316.175528mSCRKamareddi, Andhra Pradesh
33UPWUppalavai  08:39+2208:40+221m--1-304.857529mSCRUppalwai Main Rd, Andhra Pradesh
34SCPSirnapalli  08:51+2208:52+221m--1-294.453456mSCRSirnapalli, Andhra Pradesh
35IDLIndalvai (1)X  09:01+2309:02+231m11-286.547439mSCRIndalvai, Andhra Pradesh
36DHPDichpalliX  09:14+2209:15+231m--1-277.139424mSCRDichpalli, Andhra Pradesh
37NZBNizamabad (3)  09:35+1909:40+205m31-264.247384mSCRNizamabad, Andhra Pradesh
38JKMJankampet Junction (1)  09:48+2109:49+211m11-258.063391mSCRJankampet Junction nizamabad dist., Andhra Pradesh
39NVTNavipet (2)  09:58+2309:59+271m--1-248.670374mSCRNizamabad, Andhra Pradesh
40FKBFakrabad (1)  10:05+2010:06+201m--1-241.618348mSCRBasara, Andhra Pradesh
41BSXBasar (2)X  10:28+1710:30+182m21-234.959358mSCRDist Adilabad, Andhra Pradesh
42DABDharmabad (2)  10:40+1910:41+211m--1-225.078354mSCRDegaon, Maharashtra
43SQESamrla  10:46+2210:47+221m--1-218.653360mSCRDharmabad, Maharashtra
44KEKKarkheli  10:55+2210:56+221m--1-211.456358mSCRBiloli, Maharashtra
45BLSABolsa  11:04+2311:05+231m--1-204.056361mSCRDharmabad, Maharashtra
46UMRIUmri  11:14+2411:15+241m--1-195.694381mSCRNanded, Maharashtra
47SLGHShelgaon Halt  11:20+2511:21+251m--1-187.833378mSCRMudkhed, Maharashtra
48SVNSivungaon  11:29+2911:30+301m--1-183.317395mSCRNanded, Maharashtra
49MUEMudkhed Junction (4)  11:55+3611:57+382m--1-176.161378mSCRMudkhed, Maharashtra
50MGCMugat  12:06+4312:07+441m--1-166.939360mSCRNanded, Maharashtra
51PARDPathradX  12:12+4412:13+441m--1-163.743363mSCRHuzur Sahib Nanded, Maharashtra
52MTDIMaltekdi  12:23+4412:24+451m--1-156.528362mSCRNanded, Maharashtra
53NEDHazur Sahib Nanded (4)X  12:30+4712:35+555m--1-153.843366mSCRNanded ph.no 09730471954, Maharashtra
54WNGWanegaon  12:44+5212:45+521m--1-147.331371mSCRChudawa, Maharashtra
55LBGLimbgaonX  12:54+5212:55+551m--1-142.664390mSCRHuzur Sahib Nanded, Maharashtra
56CRUChudawa (1)X  13:04+5713:05+1:001m11-133.040392mSCRHingoli, Maharashtra
57PAUPurna Junction (4)X  13:20+5813:25+1:065m--1-123.152384mSCRPurna, Maharashtra
58MQLMirkhal  13:39+1:0913:40+1:101m--1-111.036405mSCRPurna, Maharashtra
59PIZPingli  13:49+1:0913:50+1:111m--1-105.751399mSCRParbhani, Maharashtra
60PBNParbhani Junction (3)X  14:03+1:1014:05+1:142m11-94.773414mSCRParbhani 431401, Maharashtra
61PGPergaon  14:15+1:1914:16+1:201m--1-82.673441mSCRParbhani, Maharashtra
62DAVDevalgaon Avchar  14:21+1:2514:22+1:261m--1-76.579425mSCRParbhani, Maharashtra
63MVOManwath Road (2)  14:29+1:3014:30+1:321m--1-67.354421mSCRParbhani, Maharashtra
64DGPPDhengli PimpalgaonX  14:36+1:4014:37+1:421m--1-61.926407mSCRSatuna, Maharashtra
65SELUSelu (2)  14:59+1:3015:00+1:331m--1-52.368436mSCRParbhani, Maharashtra
66SCOSatunaX  15:09+1:3515:10+1:361m--1-42.153440mSCRSatona, Maharashtra
67UPRUsmanpur  15:19+1:3615:20+1:371m--1-34.263444mSCRUsmanpur, Maharashtra
68PTUPartur (2)  15:29+1:3815:30+1:401m--1-24.748465mSCRJalna, Maharashtra
69PDGParadgaon  15:39+1:3815:40+1:381m--1-17.542454mSCRUsmanpur, Maharashtra
70RNERanjani  15:49+1:3815:50+1:391m--1-11.275469mSCRJalna, Maharashtra
71KODI»Kodi»X  15:59+1:4316:00+1:431m--10.066473mSCRRanjani, Maharashtra
72SVDSarwariX  16:09+1:4616:10+1:481m--110.08493mSCRRanjani, Maharashtra
73JJalna (3)  17:23+4817:25+512m--119.781502mSCRJalna, Maharashtra
74BDUBadnapur  17:39+5517:40+581m--138.771523mSCRJalna, Maharashtra
75KMVKarmad  17:53+1:0317:54+1:071m--154.124567mSCRAurangabad, Maharashtra
76CTHChikalthanX  18:04+1:1118:05+1:161m--158.1-582mSCRAurangabad, Maharashtra
77MKDDMukundwadi Halt (1)X  18:09+3418:10+341m1172.411580mSCRAurangabad, Maharashtra
78AWBAurangabad (5)X  19:05+3419:10+385m--182.383561mSCRAurangabad 431001, Maharashtra
79DLBDaulatabad  19:19+4219:20+431m--194.831575mSCRDaulatabad, Maharashtra
80POZPotul (1)  19:38+3419:39+361m11104.1141554mSCRLasur, Maharashtra
81LSRLasur (2)X  19:44+4019:45+421m--1115.9102536mSCRAurangabad, Maharashtra
82KAJGKaranjgaonX  19:51+4619:52+471m--1126.131523mSCRLasur, Maharashtra
83PSDParsoda  20:01+4720:02+501m--1130.762530mSCRRotegaon, Maharashtra
84RGORotegaonX  20:14+4920:15+511m--1143.0145547mSCRAurangabad, Maharashtra
85TRTarur  20:24+5720:25+1:001m--1164.811586mSCRTaru, Maharashtra
86NSLNagarsol (2)X  20:59+4121:00+501m--1171.011589mSCRDist. Nashik, Maharashtra
87ANKAnkai (3)X  21:54+1721:55+1:281m31181.011620mSCRDist. Nashik, Maharashtra
88MMR•Manmad Junction (6)•  23:05+1:44-61193.9-580mCRManmad 423104, Maharashtra
Scroll to Top
Scroll to Bottom